Terminal Aerodrome Forecast
Issued by NWS

Home | Current Version | Previous Version | Text Only | Print | Product List | Glossary On
Versions: 1 2 3 4 5 6 7 8 9 10 11 12 13 14 15 16 17 18 19 20 21 22 23 24 25 26 27 28 29 30 31 32 33 34 35
616
FTUS46 KLOX 250904 AAC
TAFSBP
TAF AMD
KSBP 250904Z 2509/2606 30007KT P6SM VCFG OVC004
     FM251300 31005KT 2SM BR VCFG OVC003
     FM251400 31005KT 4SM BR OVC004
     FM251700 31006KT P6SM SKC
     FM252000 32014KT P6SM SKC
     FM260500 VRB05KT P6SM SKC=

USA.gov is the U.S. government's official web portal to all federal, state and local government web resources and services.